Aérodrome :
LOGIN :

S'inscrire | Disclaimer

   EN    FR    IT 

 










Légende :    VFR   VFR Marginal   IFR   IFR Intensif   IFR Très Intensif
Visi : 
Plafond : 
>= 8 km
>= 3000ft
5 à 8 km
1000 à 3000 ft
1500m à 5 km
500 à 1000 ft
800 à 1500m
200 à 500 ft
< 800m
< 200 ft
Symboles :   Orages  Brouillard  Fortes neiges  Fortes précipitations  Vent > 20 kt
SIGMETs :   Divers  Orages  Givrage  Turbulence  Onde Orograph.  Cendres Volcan.






- Altitude de l'aérodrome : 1273 ft
- Code IATA : LJU


LJLJ - Ljubljana

DERNIER METAR :
  • 250700Z VRB01KT 9999 -RA SCT033 OVC040 00/M01 Q1024 NOSIG

METARs EXPIRÉS :
  • 250630Z 22001KT 9999 -RA BKN033 00/M01 Q1024 NOSIG
  • 250600Z 30004KT 9999 -RA BKN033 01/M02 Q1023 R30/CLRD// NOSIG
  • 250530Z 30005KT 9999 BKN033 02/M03 Q1023 R30/CLRD// NOSIG
  • 250500Z 27006KT 9999 BKN040 01/M03 Q1023 R30/CLRD// NOSIG

TAF TAF LJLJ
Valide du 25 à 06h jusqu'au 26 à 06h UTC


250500Z 2506/2606 29004KT 9999 SCT040 BKN095
BECMG 2506/2508 SCT027 BKN045
TEMPO 2506/2606 -RA FEW015 BKN025 OVC040



MET'MAP, la Météo Aéronautique d'un coup d'oeil ! - Copyright ORBIFLY Décembre 2007 - Disclaimer

ORBIFLY MET'MAP TEAM :

Programmation & Développement : Alexandra Zaïnal
Sur une idée originale de : Baudouin d'Aumeries
Assistance à la programmation : Marc-Olivier Méhu
Soutien technique & logistique : Manuel Goepfert

Contact : metmap@orbifly.com




SOURCES & CREDITS :

   NOAA